createdAt,value
2022-08-28T00:01:33.546Z,99872.39
2022-08-28T00:07:58.541Z,99877.17
2022-08-28T00:14:14.010Z,99878.87
2022-08-28T00:20:46.026Z,99874.48
2022-08-28T00:27:12.753Z,99871.50
2022-08-28T00:33:38.581Z,99878.11
2022-08-28T00:40:07.848Z,99883.09
2022-08-28T00:46:27.375Z,99881.04
2022-08-28T00:52:52.521Z,99873.48
2022-08-28T00:59:24.016Z,99868.38
2022-08-28T01:05:48.420Z,99869.95
2022-08-28T01:12:12.774Z,99871.77
2022-08-28T01:18:39.803Z,99872.59
2022-08-28T01:25:04.088Z,99875.14
2022-08-28T01:31:28.621Z,99877.98
2022-08-28T01:37:53.008Z,99878.48
2022-08-28T01:44:18.469Z,99870.50
2022-08-28T01:50:42.674Z,99865.40
2022-08-28T01:57:03.304Z,99864.60
2022-08-28T02:03:28.610Z,99860.41
2022-08-28T02:09:52.818Z,99856.56
2022-08-28T02:16:17.920Z,99860.10
2022-08-28T02:22:42.264Z,99857.91
2022-08-28T02:29:06.498Z,99858.88
2022-08-28T02:35:31.479Z,99863.98
2022-08-28T02:41:56.839Z,99866.27
2022-08-28T02:48:21.172Z,99869.36
2022-08-28T02:54:51.678Z,99875.92
2022-08-28T03:01:16.884Z,99871.06
2022-08-28T03:07:41.283Z,99867.09
2022-08-28T03:14:06.693Z,99865.63
2022-08-28T03:20:30.877Z,99870.05
2022-08-28T03:27:02.786Z,99871.88
2022-08-28T03:33:29.599Z,99872.52
2022-08-28T03:39:49.245Z,99870.40
2022-08-28T03:46:14.803Z,99871.14
2022-08-28T03:52:40.313Z,99875.23
2022-08-28T03:59:07.378Z,99873.73
2022-08-28T04:05:31.671Z,99873.98
2022-08-28T04:11:56.005Z,99887.98
2022-08-28T04:18:21.591Z,99893.35
2022-08-28T04:24:45.998Z,99902.67
2022-08-28T04:31:10.419Z,99897.79
2022-08-28T04:37:34.674Z,99900.77
2022-08-28T04:43:59.050Z,99910.48
2022-08-28T04:50:25.474Z,99910.25
2022-08-28T04:56:49.732Z,99914.98
2022-08-28T05:03:13.923Z,99921.72
2022-08-28T05:09:41.407Z,99914.23
2022-08-28T05:16:05.948Z,99909.67
2022-08-28T05:22:31.360Z,99910.13
2022-08-28T05:28:56.628Z,99916.85
2022-08-28T05:35:21.019Z,99926.19
2022-08-28T05:41:56.453Z,99925.64
2022-08-28T05:48:21.917Z,99931.70
2022-08-28T05:54:57.636Z,99940.77
2022-08-28T06:01:23.218Z,99931.42
2022-08-28T06:07:50.719Z,99931.98
2022-08-28T06:14:18.050Z,99934.63
2022-08-28T06:20:43.609Z,99937.77
2022-08-28T06:27:10.717Z,99941.86
2022-08-28T06:33:35.017Z,99938.70
2022-08-28T06:40:06.044Z,99940.88
2022-08-28T06:46:38.461Z,99944.33
2022-08-28T06:53:05.786Z,99946.24
2022-08-28T06:59:31.168Z,99949.84
2022-08-28T07:05:57.597Z,99952.36
2022-08-28T07:12:23.343Z,99950.33
2022-08-28T07:18:09.354Z,99952.52
2022-08-28T07:23:21.186Z,99950.68
2022-08-28T07:28:48.692Z,99954.65
2022-08-28T07:35:05.843Z,99956.31
2022-08-28T07:41:12.205Z,99962.06
2022-08-28T07:47:41.010Z,99960.21
2022-08-28T07:53:54.148Z,99968.77
2022-08-28T08:00:10.081Z,99977.69
2022-08-28T08:06:40.070Z,99983.20
2022-08-28T08:13:07.025Z,99984.33
2022-08-28T08:19:14.804Z,99987.79
2022-08-28T08:25:20.693Z,99984.09
2022-08-28T08:31:58.744Z,99991.61
2022-08-28T08:38:10.954Z,99997.91
2022-08-28T08:44:54.875Z,100000.45
2022-08-28T08:51:22.417Z,100002.63
2022-08-28T08:57:50.927Z,100003.98
2022-08-28T09:04:06.977Z,100004.48
2022-08-28T09:10:37.509Z,100009.88
2022-08-28T09:17:05.209Z,100012.54
2022-08-28T09:23:39.021Z,100012.73
2022-08-28T09:30:08.636Z,100015.35
2022-08-28T09:36:05.797Z,100017.68
2022-08-28T09:42:36.751Z,100009.86
2022-08-28T09:49:03.421Z,100001.98
2022-08-28T09:55:41.296Z,100004.09
2022-08-28T10:02:11.058Z,100006.23
2022-08-28T10:08:38.477Z,100008.14
2022-08-28T10:15:13.228Z,100004.05
2022-08-28T10:21:41.616Z,100011.55
2022-08-28T10:28:23.610Z,100015.03
2022-08-28T10:35:09.646Z,100014.90
2022-08-28T10:41:43.568Z,100016.77
2022-08-28T10:48:11.635Z,100010.09
2022-08-28T10:54:33.895Z,100016.56
2022-08-28T11:01:00.392Z,100015.73
2022-08-28T11:07:37.295Z,100016.95
2022-08-28T11:14:04.177Z,100012.17
2022-08-28T11:20:56.682Z,100016.34
2022-08-28T11:27:31.046Z,100017.92
2022-08-28T11:33:55.130Z,100019.77
2022-08-28T11:40:21.734Z,100021.46
2022-08-28T11:46:18.216Z,100032.72
2022-08-28T11:52:16.961Z,100032.65
2022-08-28T11:57:49.673Z,100030.61
2022-08-28T12:04:08.224Z,100031.58
2022-08-28T12:10:39.801Z,100030.98
2022-08-28T12:17:08.695Z,100037.06
2022-08-28T12:23:45.699Z,100044.91
2022-08-28T12:30:28.950Z,100050.98
2022-08-28T12:36:55.484Z,100058.77
2022-08-28T12:43:19.794Z,100065.99
2022-08-28T12:50:08.287Z,100068.16
2022-08-28T12:56:34.506Z,100061.22
2022-08-28T13:03:02.192Z,100057.77
2022-08-28T13:09:11.236Z,100066.35
2022-08-28T13:15:41.592Z,100074.73
2022-08-28T13:22:32.187Z,100094.16
2022-08-28T13:28:42.520Z,100094.90
2022-08-28T13:35:10.161Z,100096.42
2022-08-28T13:41:34.099Z,100096.81
2022-08-28T13:48:02.816Z,100102.33
2022-08-28T13:54:17.190Z,100111.40
2022-08-28T14:00:46.508Z,100106.03
2022-08-28T14:07:13.278Z,100114.49
2022-08-28T14:13:29.064Z,100121.61
2022-08-28T14:19:49.555Z,100118.30
2022-08-28T14:25:53.745Z,100118.27
2022-08-28T14:32:05.344Z,100125.38
2022-08-28T14:38:31.337Z,100124.16
2022-08-28T14:45:06.703Z,100130.70
2022-08-28T14:51:37.100Z,100132.66
2022-08-28T14:58:05.525Z,100129.30
2022-08-28T15:04:24.550Z,100128.30
2022-08-28T15:10:47.406Z,100125.58
2022-08-28T15:17:14.596Z,100122.02
2022-08-28T15:23:39.135Z,100118.52
2022-08-28T15:30:09.939Z,100119.45
2022-08-28T15:36:39.260Z,100116.08
2022-08-28T15:43:04.832Z,100113.72
2022-08-28T15:49:36.148Z,100109.66
2022-08-28T15:56:10.630Z,100123.39
2022-08-28T16:02:32.172Z,100131.55
2022-08-28T16:08:36.515Z,100141.89
2022-08-28T16:15:02.180Z,100141.81
2022-08-28T16:21:28.291Z,100143.42
2022-08-28T16:28:00.606Z,100143.85
2022-08-28T16:34:21.667Z,100146.52
2022-08-28T16:40:40.187Z,100157.34
2022-08-28T16:47:14.300Z,100155.77
2022-08-28T16:53:40.848Z,100160.33
2022-08-28T17:00:10.969Z,100160.65
2022-08-28T17:06:27.215Z,100155.98
2022-08-28T17:12:53.131Z,100162.84
2022-08-28T17:19:23.479Z,100170.64
2022-08-28T17:25:51.092Z,100178.52
2022-08-28T17:32:16.031Z,100182.34
2022-08-28T17:38:40.759Z,100188.30
2022-08-28T17:45:06.956Z,100188.33
2022-08-28T17:51:42.768Z,100195.41
2022-08-28T17:58:08.890Z,100197.17
2022-08-28T18:04:34.744Z,100202.52
2022-08-28T18:11:03.763Z,100205.89
2022-08-28T18:17:28.365Z,100213.70
2022-08-28T18:23:54.136Z,100221.23
2022-08-28T18:29:58.828Z,100228.38
2022-08-28T18:36:04.805Z,100235.30
2022-08-28T18:41:58.504Z,100244.68
2022-08-28T18:48:27.779Z,100249.23
2022-08-28T18:54:53.687Z,100250.50
2022-08-28T19:01:01.215Z,100252.58
2022-08-28T19:07:05.889Z,100259.05
2022-08-28T19:13:30.457Z,100266.01
2022-08-28T19:19:56.339Z,100268.92
2022-08-28T19:26:33.631Z,100274.64
2022-08-28T19:33:03.204Z,100275.82
2022-08-28T19:39:38.449Z,100282.20
2022-08-28T19:45:58.010Z,100283.10
2022-08-28T19:52:07.983Z,100289.94
2022-08-28T19:58:07.777Z,100294.69
2022-08-28T20:04:32.750Z,100300.36
2022-08-28T20:10:16.540Z,100299.85
2022-08-28T20:17:09.893Z,100302.99
2022-08-28T20:24:05.641Z,100309.50
2022-08-28T20:30:46.095Z,100310.14
2022-08-28T20:37:26.915Z,100315.70
2022-08-28T20:43:43.749Z,100319.57
2022-08-28T20:50:31.444Z,100326.53
2022-08-28T20:56:58.997Z,100329.37
2022-08-28T21:03:20.641Z,100334.19
2022-08-28T21:10:03.862Z,100339.48
2022-08-28T21:16:37.580Z,100344.33
2022-08-28T21:23:14.594Z,100349.17
2022-08-28T21:29:59.311Z,100353.91
2022-08-28T21:36:33.918Z,100352.38
2022-08-28T21:43:26.147Z,100360.10
2022-08-28T21:50:23.748Z,100367.49
2022-08-28T21:57:15.762Z,100370.09
2022-08-28T22:10:59.096Z,100380.79
2022-08-28T22:17:35.207Z,100376.54
2022-08-28T22:23:59.594Z,100380.66
2022-08-28T22:30:23.896Z,100383.24
2022-08-28T22:36:48.712Z,100390.96
2022-08-28T22:42:04.304Z,100391.09
2022-08-28T22:48:20.620Z,100391.51
2022-08-28T22:54:40.288Z,100392.11
2022-08-28T23:00:30.920Z,100396.67
2022-08-28T23:06:48.631Z,100392.73
2022-08-28T23:13:14.344Z,100396.91
2022-08-28T23:19:42.163Z,100399.83
2022-08-28T23:26:06.705Z,100402.46
2022-08-28T23:32:34.199Z,100398.61
2022-08-28T23:38:59.669Z,100405.88
2022-08-28T23:45:24.066Z,100406.92
2022-08-28T23:51:48.738Z,100405.09
2022-08-28T23:58:20.758Z,100408.23
